Main page
METAR-TAF:

METAR-TAF

Airports :

La Tontouta International Airport

Nouméa / La Tontouta, New Caledonia

latitude: 22-01S, longitude: 166-13E, elevation: 16 m

Current weather observation

The report was made 27 minutes ago, at 23:00 UTC
Wind 9 kt from the East, varying between Northeast and South/Southeast
Temperature 30°C
Humidity 55%
Pressure 1013 hPa
Visibility 10 km or more
Few clouds at a height of 3800 ft

METAR: NWWW 212300Z AUTO 10009KT 040V150 9999 FEW038 30/20 Q1013 BECMG 13020KT

Time: 10:27 (23:27 UTC)

Forecast

The report was made 6 hours and 27 minutes ago, at 17:00 UTC
Forecast valid from 21 at 18 UTC to 22 at 18 UTC
Wind 2 kt from variable directions
Visibility 10 km or more
Few clouds at a height of 4000 ft
Becoming
from 21 at 23 UTC to 22 at 01 UTC
Wind 20 kt from the Southeast
Becoming
from 22 at 06 UTC to 22 at 08 UTC
Wind 2 kt from variable directions

TAF: NWWW 211700Z 2118/2218 VRB02KT 9999 FEW040 BECMG 2123/2201 13020KT BECMG 2206/2208 VRB02KT

Weather observations and forecasts of more than 4000 airports (METAR and TAF reports).

The available stations are represented by yellow and red dots on the map.

Hover mouse over dot to see the name of the station.

Then click to see weather observations and forecasts.

To change the map : click on the green buttons with a black cross to zoom in, on the green button with a dash to zoom out, or on the green arrows for adjacent maps.


METAR-TAF: